Time;durP1;ratioP1;P1;durP2;ratioP2;P2;SDS_P1;SDS_P2;PMS_P1;PMS_P2;Temp;Humidity;BMP_temperature;BMP_pressure;BME280_temperature;BME280_humidity;BME280_pressure;Samples;Min_cycle;Max_cycle;Signal;HPM_P1;HPM_P2
2024/02/15 07:52:13;;;;;;;45.28;26.25;;;17.90;46.00;;;;;;4994571;28;112981;-54
2024/02/15 07:54:39;;;;;;;31.03;27.97;;;9.90;62.10;;;;;;4972891;28;112890;-54
2024/02/15 07:57:05;;;;;;;29.90;26.80;;;7.10;73.50;;;;;;4977454;28;112857;-54
2024/02/15 07:59:30;;;;;;;;;;;6.60;77.80;;;;;;4975821;28;113798;-56
2024/02/15 08:01:57;;;;;;;53.13;30.70;;;6.40;79.30;;;;;;4982926;28;113696;-56
2024/02/15 08:04:24;;;;;;;63.40;32.17;;;6.40;79.90;;;;;;4975567;28;113196;-56
2024/02/15 08:06:53;;;;;;;51.92;31.42;;;6.30;81.10;;;;;;4964278;28;112654;-56
2024/02/15 08:09:21;;;;;;;60.67;32.40;;;6.40;81.70;;;;;;4968364;28;114647;-54
2024/02/15 08:11:47;;;;;;;35.72;31.90;;;6.50;81.20;;;;;;4972256;28;114314;-54
2024/02/15 08:14:13;;;;;;;40.58;32.95;;;6.60;81.40;;;;;;4973632;28;112744;-54
2024/02/15 08:16:40;;;;;;;45.95;35.78;;;6.60;81.10;;;;;;4972088;28;112742;-54
2024/02/15 08:19:06;;;;;;;47.70;35.22;;;6.90;80.90;;;;;;4970712;28;115107;-54
2024/02/15 08:21:33;;;;;;;;;;;7.00;80.20;;;;;;4973947;28;113413;-54
2024/02/15 08:24:06;;;;;;;69.30;35.30;;;7.10;80.20;;;;;;4974408;28;112633;-56
2024/02/15 08:26:39;;;;;;;56.33;41.33;;;7.10;80.40;;;;;;4974422;28;112740;-55
2024/02/15 08:29:09;;;;;;;47.40;36.85;;;6.90;81.10;;;;;;4978347;28;114418;-54
2024/02/15 08:31:35;;;;;;;54.28;34.30;;;7.10;80.60;;;;;;4981850;28;113626;-54
2024/02/15 08:34:09;;;;;;;47.73;39.33;;;7.20;79.80;;;;;;4981607;28;112803;-55
2024/02/15 08:36:36;;;;;;;52.47;36.90;;;7.00;80.50;;;;;;4981701;28;113279;-55
2024/02/15 08:39:03;;;;;;;38.45;34.83;;;7.20;79.90;;;;;;4980561;28;113252;-54
2024/02/15 08:41:29;;;;;;;37.90;34.42;;;7.60;79.00;;;;;;4980708;28;113248;-54
2024/02/15 08:43:58;;;;;;;44.27;37.10;;;8.10;77.50;;;;;;4981525;28;112779;-54
2024/02/15 08:46:25;;;;;;;39.15;35.13;;;7.90;77.90;;;;;;4968089;28;113109;-55
2024/02/15 08:48:51;;;;;;;38.70;35.20;;;8.00;77.40;;;;;;4980144;28;113153;-55
2024/02/15 08:51:17;;;;;;;39.35;35.53;;;8.10;77.70;;;;;;4979602;28;113871;-54
2024/02/15 08:53:43;;;;;;;43.42;38.25;;;8.20;77.30;;;;;;4972372;28;112825;-54
2024/02/15 08:56:10;;;;;;;39.50;34.33;;;8.30;76.80;;;;;;4970744;28;112710;-54
2024/02/15 08:58:35;;;;;;;;;;;8.30;76.90;;;;;;4967167;28;114005;-55
2024/02/15 09:01:02;;;;;;;43.67;38.85;;;8.40;77.00;;;;;;4973885;28;113316;-54
2024/02/15 09:03:28;;;;;;;47.72;41.17;;;8.40;77.20;;;;;;4954636;28;112998;-54
2024/02/15 09:05:54;;;;;;;44.08;39.30;;;8.60;76.20;;;;;;4958065;28;112653;-55
2024/02/15 09:08:20;;;;;;;49.45;44.17;;;8.80;76.40;;;;;;4952988;28;113638;-55
2024/02/15 09:10:55;;;;;;;45.38;40.70;;;8.90;75.80;;;;;;4953580;28;112801;-55
2024/02/15 09:13:22;;;;;;;46.33;41.33;;;9.40;75.10;;;;;;4956054;28;112769;-54
2024/02/15 09:15:48;;;;;;;47.35;42.17;;;9.40;75.30;;;;;;4954283;28;112830;-55
2024/02/15 09:18:13;;;;;;;54.13;44.10;;;9.70;74.50;;;;;;4956370;28;113776;-55
2024/02/15 09:20:44;;;;;;;53.30;44.40;;;9.70;74.00;;;;;;4953240;28;112777;-55
2024/02/15 09:23:11;;;;;;;52.00;43.53;;;10.10;73.20;;;;;;4958839;28;112657;-55
2024/02/15 09:25:44;;;;;;;48.33;42.90;;;10.90;70.80;;;;;;4953964;28;113167;-55
2024/02/15 09:28:10;;;;;;;52.17;45.45;;;11.30;70.20;;;;;;4961655;28;114633;-58
2024/02/15 09:30:36;;;;;;;50.40;44.97;;;10.80;70.60;;;;;;4961468;28;112699;-55
2024/02/15 09:33:04;;;;;;;52.13;46.45;;;10.70;72.00;;;;;;4955630;28;112737;-55
2024/02/15 09:35:31;;;;;;;51.42;45.72;;;10.70;72.00;;;;;;4960882;28;112770;-55
2024/02/15 09:37:57;;;;;;;55.13;49.25;;;10.40;72.90;;;;;;4963650;28;114036;-55
2024/02/15 09:40:26;;;;;;;50.28;44.75;;;10.60;72.80;;;;;;4965206;28;112931;-55
2024/02/15 09:42:52;;;;;;;50.55;43.03;;;11.60;71.00;;;;;;4963469;28;113540;-55
2024/02/15 09:45:20;;;;;;;56.33;46.55;;;12.50;66.90;;;;;;4966269;28;112743;-55
2024/02/15 09:47:50;;;;;;;53.83;46.75;;;11.90;67.80;;;;;;4962463;28;113231;-55
2024/02/15 09:50:17;;;;;;;56.53;46.90;;;12.30;67.20;;;;;;4965524;28;113662;-55
2024/02/15 09:52:54;;;;;;;60.50;49.85;;;12.30;68.20;;;;;;4963686;28;112649;-55
2024/02/15 09:55:22;;;;;;;59.75;50.95;;;11.90;68.80;;;;;;4956284;28;113130;-55
2024/02/15 09:57:50;;;;;;;59.42;49.38;;;12.80;66.50;;;;;;4962846;28;114373;-55
2024/02/15 10:00:16;;;;;;;63.33;49.38;;;12.30;67.00;;;;;;4953609;28;112646;-55
2024/02/15 10:02:55;;;;;;;62.05;49.28;;;12.20;68.00;;;;;;4965559;28;112553;-55
2024/02/15 10:05:22;;;;;;;59.90;48.25;;;12.40;66.60;;;;;;4954482;28;112736;-55
2024/02/15 10:07:49;;;;;;;62.17;49.50;;;13.20;65.80;;;;;;4964267;28;113447;-55
2024/02/15 10:10:21;;;;;;;55.85;47.65;;;13.10;64.40;;;;;;4964325;28;112852;-55
2024/02/15 10:12:48;;;;;;;56.22;46.55;;;14.00;62.80;;;;;;4965607;28;112903;-55
2024/02/15 10:15:35;;;;;;;59.88;50.92;;;14.50;61.40;;;;;;4964773;28;113072;-55
2024/02/15 10:18:03;;;;;;;63.35;51.08;;;13.60;63.00;;;;;;4964128;28;113116;-55
2024/02/15 10:20:29;;;;;;;61.92;51.60;;;13.00;65.00;;;;;;4962908;28;112878;-55
2024/02/15 10:22:58;;;;;;;58.47;50.70;;;12.90;65.40;;;;;;4965714;28;112878;-55
2024/02/15 10:25:27;;;;;;;60.45;49.33;;;13.30;63.90;;;;;;4962680;28;112857;-55
2024/02/15 10:28:02;;;;;;;62.40;51.15;;;13.20;65.40;;;;;;4964631;28;113337;-55
2024/02/15 10:30:29;;;;;;;60.05;50.45;;;14.80;61.60;;;;;;4962150;28;114194;-55
2024/02/15 10:32:56;;;;;;;62.05;50.45;;;14.30;62.30;;;;;;4966346;28;112620;-55
2024/02/15 10:35:22;;;;;;;64.13;55.10;;;15.80;58.30;;;;;;4967570;28;112919;-55
2024/02/15 10:37:52;;;;;;;66.32;53.28;;;13.90;62.50;;;;;;4965199;28;114088;-55
2024/02/15 10:40:19;;;;;;;68.47;56.33;;;13.40;65.30;;;;;;4965275;28;113714;-55
2024/02/15 10:42:47;;;;;;;68.70;55.08;;;12.90;66.60;;;;;;4959070;28;112566;-55
2024/02/15 10:45:17;;;;;;;68.30;55.85;;;12.50;68.30;;;;;;4961111;28;112691;-55
2024/02/15 10:47:46;;;;;;;74.72;57.47;;;12.80;67.60;;;;;;4959166;28;114512;-55
2024/02/15 10:50:12;;;;;;;82.10;59.80;;;12.40;68.80;;;;;;4959582;28;115299;-55
2024/02/15 10:52:54;;;;;;;78.97;59.42;;;12.30;69.60;;;;;;4952738;28;113155;-55
2024/02/15 10:55:24;;;;;;;;;;;12.40;69.70;;;;;;4964656;28;112710;-56
2024/02/15 10:57:52;;;;;;;80.53;61.83;;;12.70;68.70;;;;;;4963701;28;117424;-55
2024/02/15 11:00:25;;;;;;;80.53;61.60;;;12.80;68.90;;;;;;4961561;28;116262;-55
2024/02/15 11:03:05;;;;;;;88.82;64.55;;;12.40;70.00;;;;;;4960300;28;112646;-55
2024/02/15 11:05:37;;;;;;;87.70;65.78;;;11.60;72.30;;;;;;4959499;28;112924;-56
2024/02/15 11:08:08;;;;;;;88.72;66.80;;;11.50;72.80;;;;;;4957465;28;114827;-55
2024/02/15 11:10:38;;;;;;;95.18;69.68;;;11.40;73.80;;;;;;4960222;28;113905;-55
2024/02/15 11:13:05;;;;;;;94.10;68.57;;;10.80;75.70;;;;;;4958017;28;112931;-56
2024/02/15 11:15:53;;;;;;;89.57;65.65;;;11.00;75.70;;;;;;4961104;28;112736;-55
2024/02/15 11:18:51;;;;;;;86.03;65.50;;;11.10;75.00;;;;;;4950829;28;114962;-55
2024/02/15 11:21:20;;;;;;;88.38;67.03;;;11.30;74.70;;;;;;4962656;28;114410;-56
2024/02/15 11:23:46;;;;;;;95.30;70.63;;;11.30;75.00;;;;;;4961098;28;112509;-56
2024/02/15 11:26:46;;;;;;;93.32;71.00;;;11.60;74.30;;;;;;4961031;28;112830;-56
2024/02/15 11:29:51;;;;;;;86.30;67.22;;;11.40;74.30;;;;;;4962699;28;114496;-56
2024/02/15 11:32:47;;;;;;;84.10;66.30;;;11.40;74.40;;;;;;4962915;28;113633;-56
2024/02/15 11:35:22;;;;;;;80.68;64.03;;;12.20;72.20;;;;;;4964335;28;112756;-56
2024/02/15 11:37:48;;;;;;;78.78;65.78;;;12.70;69.30;;;;;;4962887;28;113308;-56
2024/02/15 11:40:36;;;;;;;84.43;66.28;;;14.70;64.40;;;;;;4960242;28;114892;-49
2024/02/15 11:43:04;;;;;;;95.68;75.38;;;14.90;63.10;;;;;;4958643;28;113131;-49
2024/02/15 11:45:33;;;;;;;88.35;69.18;;;13.40;67.90;;;;;;4963940;28;112800;-50
2024/02/15 11:47:59;;;;;;;84.93;72.90;;;14.00;66.10;;;;;;4964198;28;112886;-50
2024/02/15 11:50:28;;;;;;;79.68;71.18;;;15.60;62.50;;;;;;4962968;28;115006;-51
2024/02/15 11:53:08;;;;;;;74.53;66.88;;;20.20;49.70;;;;;;4946588;28;116172;-51
2024/02/15 11:55:35;;;;;;;75.32;67.30;;;21.30;46.90;;;;;;4956430;28;112752;-50
2024/02/15 12:20:10;;;;;;;70.05;62.65;;;17.00;57.30;;;;;;4959420;28;112875;-50
2024/02/15 12:22:41;;;;;;;77.18;67.80;;;17.60;56.20;;;;;;4952905;28;113329;-50
2024/02/15 12:25:13;;;;;;;78.63;67.10;;;15.40;62.00;;;;;;4958521;28;112871;-50
2024/02/15 12:27:42;;;;;;;80.57;71.43;;;14.50;65.10;;;;;;4962333;28;113028;-49
2024/02/15 12:30:13;;;;;;;81.18;70.43;;;14.50;65.90;;;;;;4966545;28;112765;-50
2024/02/15 12:32:39;;;;;;;78.30;69.35;;;14.90;64.70;;;;;;4965317;28;114495;-50
2024/02/15 12:35:16;;;;;;;80.70;71.88;;;14.30;66.00;;;;;;4965488;28;112617;-50
2024/02/15 12:38:08;;;;;;;83.78;75.30;;;15.90;62.20;;;;;;4968130;28;112948;-50
2024/02/15 12:40:38;;;;;;;91.82;83.38;;;18.30;55.30;;;;;;4969981;28;112821;-50
2024/02/15 12:43:11;;;;;;;82.20;74.40;;;20.50;50.70;;;;;;4968782;28;113214;-50
2024/02/15 12:45:39;;;;;;;82.22;74.10;;;19.60;52.20;;;;;;4966511;28;115543;-50
2024/02/15 12:48:07;;;;;;;114.70;105.50;;;19.40;52.00;;;;;;4967027;28;112781;-51
2024/02/15 12:50:34;;;;;;;106.20;97.38;;;19.10;53.10;;;;;;4967783;28;113048;-51
2024/02/15 12:53:02;;;;;;;77.07;69.85;;;20.10;50.90;;;;;;4968600;28;113753;-52
2024/02/15 12:55:31;;;;;;;77.40;70.07;;;22.40;45.80;;;;;;4968222;28;113270;-51
2024/02/15 12:57:57;;;;;;;75.53;68.35;;;21.20;47.70;;;;;;4964661;28;113541;-52
2024/02/15 13:00:32;;;;;;;75.18;68.00;;;21.40;47.60;;;;;;4951041;28;112868;-51
2024/02/15 13:02:59;;;;;;;76.70;69.32;;;20.90;47.80;;;;;;4952593;28;113777;-52
2024/02/15 13:05:26;;;;;;;76.75;69.78;;;21.70;47.10;;;;;;4953934;28;113196;-52
2024/02/15 13:08:02;;;;;;;82.75;74.60;;;22.90;44.90;;;;;;4967028;28;112906;-52
2024/02/15 13:10:29;;;;;;;78.47;71.35;;;22.30;44.60;;;;;;4959856;28;114348;-52
2024/02/15 13:12:55;;;;;;;81.47;74.05;;;22.10;46.10;;;;;;4953269;28;113636;-52
2024/02/15 13:15:26;;;;;;;74.80;68.00;;;21.40;46.90;;;;;;4950053;28;112828;-52
2024/02/15 13:17:56;;;;;;;79.10;71.80;;;22.20;46.00;;;;;;4961590;28;112690;-52
2024/02/15 13:20:35;;;;;;;73.18;66.07;;;21.90;46.20;;;;;;4958992;28;112785;-51
2024/02/15 13:23:08;;;;;;;70.35;63.80;;;21.10;47.70;;;;;;4955078;28;113201;-51
2024/02/15 13:25:36;;;;;;;69.05;62.17;;;20.20;48.80;;;;;;4961481;28;112860;-52
2024/02/15 13:28:04;;;;;;;69.63;62.90;;;20.50;48.50;;;;;;4957902;28;112911;-51
2024/02/15 13:30:30;;;;;;;69.47;62.55;;;19.90;49.60;;;;;;4964424;28;112810;-51
2024/02/15 13:32:56;;;;;;;69.30;62.70;;;20.40;49.70;;;;;;4963273;28;113315;-52
2024/02/15 13:35:23;;;;;;;67.03;60.35;;;19.90;50.30;;;;;;4964657;28;112708;-51
2024/02/15 13:37:53;;;;;;;65.03;58.63;;;20.30;50.10;;;;;;4963395;28;112698;-52
2024/02/15 13:40:23;;;;;;;63.63;57.25;;;20.70;49.10;;;;;;4965776;28;112648;-52
2024/02/15 13:42:52;;;;;;;64.22;57.88;;;21.00;48.60;;;;;;4962541;28;113216;-52
2024/02/15 13:45:29;;;;;;;63.45;57.13;;;20.40;49.40;;;;;;4964394;28;114422;-51
2024/02/15 13:47:56;;;;;;;58.33;52.47;;;20.00;51.00;;;;;;4964084;28;112864;-51
2024/02/15 13:50:23;;;;;;;59.78;53.95;;;19.60;50.40;;;;;;4965029;28;113185;-51
2024/02/15 13:52:49;;;;;;;60.08;53.97;;;19.40;50.90;;;;;;4963722;28;114327;-51
2024/02/15 13:55:20;;;;;;;59.47;53.58;;;20.40;49.20;;;;;;4953465;28;114432;-53
2024/02/15 13:57:47;;;;;;;61.15;55.17;;;19.30;49.20;;;;;;4962877;28;112959;-51
2024/02/15 14:00:21;;;;;;;57.72;52.13;;;18.60;51.30;;;;;;4963335;28;112729;-51
2024/02/15 14:02:58;;;;;;;59.67;53.88;;;19.90;48.80;;;;;;4959336;28;114699;-51
2024/02/15 14:05:28;;;;;;;59.92;54.15;;;19.70;49.00;;;;;;4959208;28;114596;-51
2024/02/15 14:08:11;;;;;;;60.88;54.70;;;19.40;49.30;;;;;;4961955;28;113026;-51
2024/02/15 14:10:37;;;;;;;61.00;55.13;;;19.90;49.00;;;;;;4961068;28;113024;-51
2024/02/15 14:13:08;;;;;;;61.55;55.60;;;20.80;46.60;;;;;;4960427;28;113159;-51
2024/02/15 14:15:37;;;;;;;61.20;55.42;;;21.70;45.20;;;;;;4956165;28;113823;-52
2024/02/15 14:18:18;;;;;;;63.47;57.22;;;22.50;43.50;;;;;;4952743;28;112732;-52
2024/02/15 14:20:47;;;;;;;66.03;59.83;;;23.70;41.30;;;;;;4950760;28;112752;-52
2024/02/15 14:23:15;;;;;;;67.88;61.63;;;23.70;40.90;;;;;;4952079;28;113254;-53
2024/02/15 14:25:42;;;;;;;68.53;62.40;;;24.90;38.90;;;;;;4949416;28;112963;-53
2024/02/15 14:28:08;;;;;;;70.82;64.43;;;25.40;38.10;;;;;;4959219;28;112917;-52
2024/02/15 14:33:24;;;;;;;72.53;65.88;;;25.90;37.60;;;;;;4967272;28;112996;-52
2024/02/15 14:35:50;;;;;;;72.65;66.28;;;24.50;39.20;;;;;;4966566;28;112897;-52
2024/02/15 14:38:18;;;;;;;74.65;67.85;;;23.20;41.50;;;;;;4964273;28;112924;-50
2024/02/15 14:40:55;;;;;;;74.30;67.50;;;22.40;43.20;;;;;;4962616;28;112709;-52
2024/02/15 14:43:26;;;;;;;73.60;66.88;;;22.20;43.20;;;;;;4963124;28;113629;-52
2024/02/15 14:45:56;;;;;;;73.38;66.32;;;21.30;44.70;;;;;;4961346;28;113822;-52
2024/02/15 14:48:23;;;;;;;70.25;63.65;;;21.40;45.20;;;;;;4962922;28;112946;-52
2024/02/15 14:50:50;;;;;;;67.45;61.00;;;21.10;45.90;;;;;;4962734;28;113773;-52
2024/02/15 14:53:18;;;;;;;68.55;61.78;;;19.80;48.50;;;;;;4953950;28;114540;-51
2024/02/15 14:55:46;;;;;;;70.72;63.45;;;18.80;50.50;;;;;;4957004;28;113797;-52
2024/02/15 14:58:12;;;;;;;67.90;60.67;;;18.40;51.40;;;;;;4954589;28;112670;-51
2024/02/15 15:00:41;;;;;;;70.95;63.53;;;18.40;51.40;;;;;;4957655;28;114037;-51
2024/02/15 15:03:07;;;;;;;68.25;61.08;;;18.10;51.40;;;;;;4954081;28;114451;-51
2024/02/15 15:13:45;;;;;;;72.78;63.00;;;17.10;55.00;;;;;;4956441;28;113238;-51
2024/02/15 15:16:14;;;;;;;70.68;63.22;;;16.70;58.50;;;;;;4957875;28;112888;-52
2024/02/15 15:18:40;;;;;;;72.00;64.47;;;16.10;60.70;;;;;;4957116;28;112974;-51
2024/02/15 15:21:06;;;;;;;71.28;63.97;;;15.80;62.20;;;;;;4958199;28;112730;-51
2024/02/15 15:23:32;;;;;;;71.32;63.72;;;15.40;63.30;;;;;;4956239;28;114503;-51
2024/02/15 15:26:04;;;;;;;70.82;63.15;;;15.30;64.40;;;;;;4964670;28;115350;-51
2024/02/15 15:28:29;;;;;;;71.82;61.80;;;14.90;65.20;;;;;;4963314;28;113081;-51
2024/02/15 15:30:56;;;;;;;72.82;64.88;;;14.70;66.50;;;;;;4966668;28;113222;-50
2024/02/15 15:33:23;;;;;;;73.88;64.82;;;14.60;66.80;;;;;;4966006;28;113161;-51
2024/02/15 15:35:48;;;;;;;72.82;64.68;;;14.50;67.20;;;;;;4965952;28;112584;-51
2024/02/15 15:38:14;;;;;;;72.03;64.15;;;14.60;67.30;;;;;;4966963;28;112505;-51
2024/02/15 15:40:41;;;;;;;71.70;63.38;;;14.60;67.50;;;;;;4971610;28;112816;-51
2024/02/15 15:43:08;;;;;;;70.07;62.35;;;14.50;67.80;;;;;;4965679;28;114312;-51
2024/02/15 15:45:35;;;;;;;76.00;64.65;;;14.30;68.20;;;;;;4965705;28;113653;-51
2024/02/15 15:48:00;;;;;;;72.82;63.47;;;14.30;68.30;;;;;;4960923;28;112590;-51
2024/02/15 15:50:28;;;;;;;69.93;62.13;;;14.30;68.50;;;;;;4957980;28;112710;-51
2024/02/15 15:52:54;;;;;;;77.40;63.45;;;14.20;68.90;;;;;;4953657;28;113240;-52
2024/02/15 15:55:20;;;;;;;73.60;63.88;;;13.90;69.40;;;;;;4948023;28;114036;-51
2024/02/15 15:57:46;;;;;;;73.53;62.45;;;13.70;70.50;;;;;;4957649;28;113069;-51
2024/02/15 16:00:12;;;;;;;79.50;64.63;;;13.50;71.40;;;;;;4953196;28;112757;-51
2024/02/15 16:02:42;;;;;;;75.30;63.70;;;13.40;71.80;;;;;;4959283;28;114642;-50
2024/02/15 16:05:18;;;;;;;76.93;66.03;;;13.40;72.20;;;;;;4955831;28;112628;-51
2024/02/15 16:07:45;;;;;;;82.80;66.78;;;13.10;72.90;;;;;;4962620;28;112864;-51
2024/02/15 16:10:11;;;;;;;76.63;63.75;;;13.00;73.20;;;;;;4961347;28;112677;-51
2024/02/15 16:12:43;;;;;;;81.32;68.70;;;12.90;73.40;;;;;;4965394;28;113458;-51
2024/02/15 16:15:12;;;;;;;83.20;67.50;;;13.00;73.40;;;;;;4963210;28;113921;-50
2024/02/15 16:17:39;;;;;;;80.80;64.90;;;12.70;74.00;;;;;;4957112;28;112601;-51
2024/02/15 16:20:10;;;;;;;82.45;67.22;;;12.70;74.20;;;;;;4958551;28;112851;-51
2024/02/15 16:22:37;;;;;;;82.82;68.32;;;12.60;74.60;;;;;;4963791;28;114413;-51
2024/02/15 16:25:07;;;;;;;82.05;68.03;;;12.40;74.80;;;;;;4957341;28;114254;-51
2024/02/15 16:27:37;;;;;;;88.07;69.80;;;12.30;75.40;;;;;;4960602;28;112606;-50
2024/02/15 16:30:06;;;;;;;83.75;67.88;;;12.20;75.70;;;;;;4969709;28;113077;-51
2024/02/15 16:32:32;;;;;;;87.90;68.20;;;12.20;75.70;;;;;;4967138;28;113279;-50
2024/02/15 16:34:59;;;;;;;87.03;69.93;;;12.10;75.90;;;;;;4958809;28;113813;-50
2024/02/15 16:37:25;;;;;;;88.88;70.28;;;11.90;76.30;;;;;;4953506;28;112621;-51
2024/02/15 16:39:51;;;;;;;87.35;68.70;;;11.90;76.70;;;;;;4953010;28;113894;-50
2024/02/15 16:42:18;;;;;;;86.38;69.63;;;11.80;77.10;;;;;;4957164;28;113547;-51
2024/02/15 16:44:47;;;;;;;94.65;71.80;;;11.70;77.30;;;;;;4954381;28;112659;-50
2024/02/15 16:47:16;;;;;;;98.50;71.18;;;11.60;77.70;;;;;;4956449;28;112871;-50
2024/02/15 16:49:45;;;;;;;91.20;69.75;;;11.50;77.70;;;;;;4957035;28;112893;-50
2024/02/15 16:52:12;;;;;;;99.68;74.78;;;11.40;78.00;;;;;;4958678;28;114261;-51
2024/02/15 16:54:38;;;;;;;97.72;76.53;;;11.40;78.10;;;;;;4956950;28;112879;-51
2024/02/15 16:57:04;;;;;;;95.45;73.90;;;11.40;78.20;;;;;;4962328;28;113170;-50
2024/02/15 16:59:33;;;;;;;93.70;73.72;;;11.30;78.70;;;;;;4963456;28;112714;-50
2024/02/15 17:01:58;;;;;;;96.10;74.68;;;11.30;78.70;;;;;;4960769;28;113252;-50
2024/02/15 17:04:25;;;;;;;98.53;74.50;;;11.30;78.50;;;;;;4958400;28;113730;-50
2024/02/15 17:06:51;;;;;;;96.63;77.00;;;11.20;78.50;;;;;;4959014;28;113472;-50
2024/02/15 17:09:17;;;;;;;95.38;75.32;;;11.20;78.80;;;;;;4960067;28;112727;-50
2024/02/15 17:11:44;;;;;;;96.43;77.05;;;11.10;78.90;;;;;;4959907;28;113633;-50
2024/02/15 17:14:10;;;;;;;99.75;77.10;;;11.00;79.10;;;;;;4965668;28;112626;-50
2024/02/15 17:16:37;;;;;;;104.85;78.63;;;11.00;79.30;;;;;;4950940;28;113277;-51
2024/02/15 17:19:05;;;;;;;104.38;81.18;;;10.80;79.80;;;;;;4950417;28;112888;-51
2024/02/15 17:21:34;;;;;;;109.40;82.80;;;10.80;80.10;;;;;;4958327;28;114397;-50
2024/02/15 17:24:00;;;;;;;107.47;82.30;;;10.80;80.30;;;;;;4975924;28;114320;-50
2024/02/15 17:26:26;;;;;;;105.90;83.18;;;10.70;80.50;;;;;;4965930;28;112512;-50
2024/02/15 17:28:53;;;;;;;112.93;85.15;;;10.60;80.50;;;;;;4964644;28;112798;-50
2024/02/15 17:31:19;;;;;;;115.88;87.30;;;10.60;80.60;;;;;;4960072;28;114444;-50
2024/02/15 17:33:45;;;;;;;106.85;82.15;;;10.60;80.80;;;;;;4962941;28;112906;-50
2024/02/15 17:36:11;;;;;;;114.55;84.15;;;10.40;81.10;;;;;;4963665;28;112577;-50
2024/02/15 17:38:37;;;;;;;111.45;83.93;;;10.30;81.30;;;;;;4965989;28;112792;-50
2024/02/15 17:41:04;;;;;;;115.25;85.95;;;10.40;81.20;;;;;;4950217;28;114542;-50
2024/02/15 17:43:31;;;;;;;116.38;86.63;;;10.30;81.30;;;;;;4963498;28;113446;-50
2024/02/15 17:45:59;;;;;;;114.40;85.20;;;10.10;81.90;;;;;;4959356;28;113068;-50
2024/02/15 17:48:26;;;;;;;110.43;83.25;;;10.10;82.00;;;;;;4963105;28;113462;-50
2024/02/15 17:50:52;;;;;;;113.32;85.63;;;10.00;82.40;;;;;;4961508;28;114499;-50
2024/02/15 17:53:21;;;;;;;114.60;83.28;;;10.00;82.40;;;;;;4960435;28;113889;-50
2024/02/15 17:55:50;;;;;;;112.40;85.93;;;9.90;82.60;;;;;;4964010;28;112793;-50
2024/02/15 17:58:17;;;;;;;111.93;81.53;;;9.90;82.70;;;;;;4961163;28;112911;-50
2024/02/15 18:00:44;;;;;;;115.32;84.25;;;9.90;82.80;;;;;;4965446;28;114980;-50
2024/02/15 18:03:10;;;;;;;117.80;86.00;;;9.90;82.40;;;;;;4960084;28;112717;-50
2024/02/15 18:05:45;;;;;;;121.97;95.03;;;9.80;82.70;;;;;;4964789;28;112678;-50
2024/02/15 18:08:18;;;;;;;128.15;96.40;;;9.70;83.00;;;;;;4961076;28;112677;-50
2024/02/15 18:10:43;;;;;;;;;;;9.70;83.00;;;;;;4967622;28;114517;-49
2024/02/15 18:13:09;;;;;;;114.72;83.65;;;9.60;82.70;;;;;;4963667;28;112977;-50
2024/02/15 18:15:39;;;;;;;114.47;83.47;;;9.60;82.70;;;;;;4963767;28;112887;-50
2024/02/15 18:18:06;;;;;;;112.18;80.22;;;9.40;82.90;;;;;;4963534;28;112847;-49
2024/02/15 18:20:31;;;;;;;112.28;83.20;;;9.40;82.60;;;;;;4962679;28;114888;-50
2024/02/15 18:22:57;;;;;;;114.90;79.88;;;9.50;83.00;;;;;;4963405;28;112978;-49
2024/02/15 18:25:25;;;;;;;105.85;78.18;;;9.40;82.90;;;;;;4959085;28;112735;-48
2024/02/15 18:27:51;;;;;;;112.18;80.88;;;9.30;83.20;;;;;;4965375;28;113009;-48
2024/02/15 18:30:17;;;;;;;116.20;83.78;;;9.30;83.40;;;;;;4966444;28;114535;-49
2024/02/15 18:32:44;;;;;;;111.03;81.57;;;9.30;83.30;;;;;;4966670;28;113707;-50
2024/02/15 18:35:11;;;;;;;119.72;84.28;;;9.40;83.30;;;;;;4967149;28;112774;-51
2024/02/15 18:37:37;;;;;;;107.45;79.82;;;9.30;83.10;;;;;;4967279;28;112691;-51
2024/02/15 18:40:06;;;;;;;107.82;76.30;;;9.10;83.30;;;;;;4966359;28;114875;-51
2024/02/15 18:42:33;;;;;;;109.90;79.63;;;8.90;83.70;;;;;;4966424;28;113971;-51
2024/02/15 18:45:00;;;;;;;113.88;81.90;;;8.90;83.90;;;;;;4967697;28;112538;-51
2024/02/15 18:47:26;;;;;;;111.35;79.28;;;8.80;84.30;;;;;;4967819;28;112850;-51
2024/02/15 18:49:52;;;;;;;123.32;85.43;;;8.80;84.50;;;;;;4966443;28;114551;-50
2024/02/15 18:52:17;;;;;;;122.22;89.63;;;8.90;84.50;;;;;;4966684;28;114592;-51
2024/02/15 18:54:43;;;;;;;136.00;99.47;;;8.90;84.30;;;;;;4967881;28;112554;-51
2024/02/15 18:57:11;;;;;;;119.35;83.35;;;8.90;84.10;;;;;;4967426;28;112797;-52
2024/02/15 19:04:39;;;;;;;118.35;82.13;;;8.80;83.90;;;;;;5015586;28;112880;-53
2024/02/15 19:07:05;;;;;;;116.65;82.13;;;8.60;84.10;;;;;;4990768;28;113007;-52
2024/02/15 19:09:31;;;;;;;106.75;76.03;;;8.50;84.30;;;;;;4985011;28;112825;-53
2024/02/15 19:11:59;;;;;;;109.28;75.22;;;8.50;84.10;;;;;;4982673;28;114313;-50
2024/02/15 19:14:25;;;;;;;96.10;67.65;;;8.40;84.40;;;;;;4983901;28;113556;-52
2024/02/15 19:16:51;;;;;;;125.03;89.00;;;8.30;84.60;;;;;;4986813;28;112566;-50
2024/02/15 19:19:18;;;;;;;136.50;100.32;;;8.20;85.00;;;;;;4984382;28;112746;-50
2024/02/15 19:21:46;;;;;;;123.03;85.38;;;8.10;85.30;;;;;;4982193;28;113585;-50
2024/02/15 19:24:12;;;;;;;91.32;67.57;;;8.10;85.40;;;;;;4980371;28;114131;-50
2024/02/15 19:26:42;;;;;;;105.72;72.82;;;8.00;85.00;;;;;;4983402;28;113235;-53
2024/02/15 19:29:09;;;;;;;100.78;74.00;;;7.90;85.60;;;;;;4986609;28;112838;-53
2024/02/15 19:31:38;;;;;;;77.20;58.58;;;8.00;85.00;;;;;;4997488;28;114436;-53
2024/02/15 19:34:04;;;;;;;84.38;62.63;;;7.80;84.40;;;;;;4986022;28;114560;-53
2024/02/15 19:36:31;;;;;;;95.80;68.38;;;7.60;85.30;;;;;;4984840;28;114040;-53
2024/02/15 19:38:57;;;;;;;87.40;65.25;;;7.60;85.50;;;;;;4994561;28;112798;-51
2024/02/15 19:41:23;;;;;;;103.45;67.88;;;7.50;85.30;;;;;;4987692;28;113248;-51
2024/02/15 19:43:52;;;;;;;102.90;69.93;;;7.40;86.50;;;;;;4981109;28;114241;-53
2024/02/15 19:46:23;;;;;;;102.05;70.25;;;7.40;86.40;;;;;;4989135;28;113446;-50
2024/02/15 19:48:49;;;;;;;104.25;67.57;;;7.40;86.30;;;;;;4996178;28;113315;-53
2024/02/15 19:51:18;;;;;;;104.28;69.95;;;7.30;86.70;;;;;;4990827;28;114603;-53
2024/02/15 19:53:43;;;;;;;107.68;69.60;;;7.30;86.80;;;;;;4988002;28;113773;-50
2024/02/15 19:56:11;;;;;;;105.05;72.43;;;7.30;86.70;;;;;;4982911;28;112793;-50
2024/02/15 19:58:37;;;;;;;104.78;74.18;;;7.40;86.60;;;;;;4992497;28;112856;-51
2024/02/15 20:01:03;;;;;;;119.85;79.47;;;7.40;86.30;;;;;;4992071;28;113368;-51
2024/02/15 20:03:31;;;;;;;103.93;67.30;;;7.50;86.30;;;;;;4984665;28;113643;-52
2024/02/15 20:05:58;;;;;;;115.63;64.75;;;7.60;85.60;;;;;;4983554;28;112643;-50
2024/02/15 20:08:26;;;;;;;105.57;64.68;;;7.30;85.70;;;;;;4993688;28;112859;-53
2024/02/15 20:10:55;;;;;;;220.35;72.72;;;7.30;86.30;;;;;;4991363;28;113331;-53
2024/02/15 20:13:22;;;;;;;225.45;71.57;;;7.40;86.20;;;;;;4980667;28;112718;-53
2024/02/15 20:15:50;;;;;;;244.50;77.45;;;7.20;86.40;;;;;;4973748;28;113342;-53
2024/02/15 20:18:15;;;;;;;581.80;95.05;;;7.10;86.90;;;;;;4972795;28;113188;-53
2024/02/15 20:20:41;;;;;;;250.63;67.18;;;7.00;86.40;;;;;;4967530;28;113649;-53
2024/02/15 20:23:07;;;;;;;161.38;70.55;;;6.80;87.00;;;;;;4967977;28;114673;-53
2024/02/15 20:25:32;;;;;;;348.25;73.75;;;6.80;87.10;;;;;;4972983;28;116234;-54
2024/02/15 20:27:58;;;;;;;442.67;74.75;;;6.60;87.20;;;;;;4971677;28;112867;-53
2024/02/15 20:30:24;;;;;;;210.93;67.10;;;6.60;87.50;;;;;;4969859;28;114896;-50
2024/02/15 20:32:49;;;;;;;220.60;65.47;;;6.40;87.60;;;;;;4966116;28;112816;-50
2024/02/15 20:35:15;;;;;;;257.75;71.25;;;6.50;87.90;;;;;;4968469;28;112806;-50
2024/02/15 20:37:41;;;;;;;582.83;85.93;;;6.50;87.60;;;;;;4969845;28;112821;-50
2024/02/15 20:40:07;;;;;;;225.45;75.03;;;6.30;88.10;;;;;;4967732;28;113173;-51
2024/02/15 20:42:33;;;;;;;675.85;92.85;;;6.20;88.30;;;;;;4973002;28;112828;-52
2024/02/15 20:44:59;;;;;;;444.65;101.47;;;6.30;87.90;;;;;;4968465;28;112765;-53
2024/02/15 20:47:26;;;;;;;327.92;79.97;;;6.20;88.60;;;;;;4968772;28;112918;-53
2024/02/15 20:49:52;;;;;;;387.90;86.75;;;6.40;88.50;;;;;;4970532;28;113359;-53
2024/02/15 20:52:18;;;;;;;310.92;82.13;;;6.30;88.10;;;;;;4978107;28;114311;-52
2024/02/15 20:54:43;;;;;;;189.10;74.13;;;6.30;87.70;;;;;;4969555;28;112707;-53
2024/02/15 20:57:14;;;;;;;367.15;81.05;;;6.10;87.70;;;;;;4986469;28;112862;-52